sensor_id;sensor_type;location;lat;lon;timestamp;pressure;altitude;pressure_sealevel;temperature;humidity
20394;BME280;10356;50.544;9.642;2023-06-22T00:02:00;98469.88;;;19.07;98.31
20394;BME280;10356;50.544;9.642;2023-06-22T00:04:27;98465.25;;;19.01;98.22
20394;BME280;10356;50.544;9.642;2023-06-22T00:06:53;98461.28;;;18.97;98.94
20394;BME280;10356;50.544;9.642;2023-06-22T00:09:19;98460.31;;;18.98;98.40
20394;BME280;10356;50.544;9.642;2023-06-22T00:11:46;98471.38;;;18.94;98.82
20394;BME280;10356;50.544;9.642;2023-06-22T00:14:14;98476.47;;;18.87;99.42
20394;BME280;10356;50.544;9.642;2023-06-22T00:16:40;98477.31;;;18.88;99.05
20394;BME280;10356;50.544;9.642;2023-06-22T00:19:08;98477.50;;;18.86;99.34
20394;BME280;10356;50.544;9.642;2023-06-22T00:21:37;98467.25;;;18.83;99.34
20394;BME280;10356;50.544;9.642;2023-06-22T00:24:04;98479.28;;;18.78;100.00
20394;BME280;10356;50.544;9.642;2023-06-22T00:26:31;98476.47;;;18.63;100.00
20394;BME280;10356;50.544;9.642;2023-06-22T00:28:57;98489.19;;;18.60;100.00
20394;BME280;10356;50.544;9.642;2023-06-22T00:31:25;98479.47;;;18.60;100.00
20394;BME280;10356;50.544;9.642;2023-06-22T00:33:52;98475.81;;;18.61;100.00
20394;BME280;10356;50.544;9.642;2023-06-22T00:36:18;98470.81;;;18.42;100.00
20394;BME280;10356;50.544;9.642;2023-06-22T00:38:45;98457.97;;;18.47;100.00
20394;BME280;10356;50.544;9.642;2023-06-22T00:41:11;98451.53;;;18.41;100.00
20394;BME280;10356;50.544;9.642;2023-06-22T00:43:38;98447.38;;;18.39;100.00
20394;BME280;10356;50.544;9.642;2023-06-22T00:46:06;98434.19;;;18.39;100.00
20394;BME280;10356;50.544;9.642;2023-06-22T00:48:33;98413.91;;;18.39;100.00
20394;BME280;10356;50.544;9.642;2023-06-22T00:51:02;98380.09;;;18.19;100.00
20394;BME280;10356;50.544;9.642;2023-06-22T00:53:29;98323.72;;;18.04;100.00
20394;BME280;10356;50.544;9.642;2023-06-22T00:55:55;98283.81;;;17.99;100.00
20394;BME280;10356;50.544;9.642;2023-06-22T00:58:24;98272.28;;;18.08;100.00
20394;BME280;10356;50.544;9.642;2023-06-22T01:00:51;98285.78;;;18.05;100.00
20394;BME280;10356;50.544;9.642;2023-06-22T01:03:17;98304.59;;;18.18;100.00
20394;BME280;10356;50.544;9.642;2023-06-22T01:05:48;98320.72;;;18.31;100.00
20394;BME280;10356;50.544;9.642;2023-06-22T01:08:24;98323.38;;;18.39;100.00
20394;BME280;10356;50.544;9.642;2023-06-22T01:10:59;98348.81;;;18.48;100.00
20394;BME280;10356;50.544;9.642;2023-06-22T01:13:37;98355.72;;;18.57;100.00
20394;BME280;10356;50.544;9.642;2023-06-22T01:16:07;98357.38;;;18.66;100.00
20394;BME280;10356;50.544;9.642;2023-06-22T01:18:36;98361.47;;;18.61;100.00
20394;BME280;10356;50.544;9.642;2023-06-22T01:21:12;98364.94;;;18.61;100.00
20394;BME280;10356;50.544;9.642;2023-06-22T01:23:51;98367.59;;;18.61;100.00
20394;BME280;10356;50.544;9.642;2023-06-22T01:26:30;98381.13;;;18.58;100.00
20394;BME280;10356;50.544;9.642;2023-06-22T01:29:03;98403.06;;;18.59;100.00
20394;BME280;10356;50.544;9.642;2023-06-22T01:31:32;98419.06;;;18.65;100.00
20394;BME280;10356;50.544;9.642;2023-06-22T01:34:02;98435.56;;;18.59;100.00
20394;BME280;10356;50.544;9.642;2023-06-22T01:36:30;98443.81;;;18.56;100.00
20394;BME280;10356;50.544;9.642;2023-06-22T01:38:58;98442.81;;;18.57;100.00
20394;BME280;10356;50.544;9.642;2023-06-22T01:41:26;98450.06;;;18.55;100.00
20394;BME280;10356;50.544;9.642;2023-06-22T01:43:53;98462.78;;;18.60;100.00
20394;BME280;10356;50.544;9.642;2023-06-22T01:46:22;98466.75;;;18.64;100.00
20394;BME280;10356;50.544;9.642;2023-06-22T01:48:49;98482.09;;;18.68;100.00
20394;BME280;10356;50.544;9.642;2023-06-22T01:51:16;98486.72;;;18.74;100.00
20394;BME280;10356;50.544;9.642;2023-06-22T01:53:43;98494.97;;;18.87;100.00
20394;BME280;10356;50.544;9.642;2023-06-22T01:56:11;98511.81;;;18.94;100.00
20394;BME280;10356;50.544;9.642;2023-06-22T01:58:45;98528.31;;;18.96;100.00
20394;BME280;10356;50.544;9.642;2023-06-22T02:01:15;98539.56;;;19.06;100.00
20394;BME280;10356;50.544;9.642;2023-06-22T02:03:50;98547.63;;;19.13;99.82
20394;BME280;10356;50.544;9.642;2023-06-22T02:06:23;98562.31;;;19.07;100.00
20394;BME280;10356;50.544;9.642;2023-06-22T02:08:55;98568.63;;;19.06;99.98
20394;BME280;10356;50.544;9.642;2023-06-22T02:11:24;98580.81;;;19.07;100.00
20394;BME280;10356;50.544;9.642;2023-06-22T02:13:53;98588.09;;;19.13;99.49
20394;BME280;10356;50.544;9.642;2023-06-22T02:16:20;98579.50;;;19.11;100.00
20394;BME280;10356;50.544;9.642;2023-06-22T02:18:49;98579.97;;;19.07;100.00
20394;BME280;10356;50.544;9.642;2023-06-22T02:21:17;98582.63;;;19.07;100.00
20394;BME280;10356;50.544;9.642;2023-06-22T02:23:43;98573.38;;;19.11;100.00
20394;BME280;10356;50.544;9.642;2023-06-22T02:26:10;98566.47;;;19.10;100.00
20394;BME280;10356;50.544;9.642;2023-06-22T02:28:36;98566.47;;;19.10;100.00
20394;BME280;10356;50.544;9.642;2023-06-22T02:31:03;98540.34;;;19.07;100.00
20394;BME280;10356;50.544;9.642;2023-06-22T02:33:29;98505.88;;;18.92;100.00
20394;BME280;10356;50.544;9.642;2023-06-22T02:35:57;98499.09;;;18.90;100.00
20394;BME280;10356;50.544;9.642;2023-06-22T02:38:24;98514.28;;;18.88;100.00
20394;BME280;10356;50.544;9.642;2023-06-22T02:40:50;98509.50;;;18.91;100.00
20394;BME280;10356;50.544;9.642;2023-06-22T02:43:17;98451.41;;;18.91;100.00
20394;BME280;10356;50.544;9.642;2023-06-22T02:45:43;98397.63;;;18.68;100.00
20394;BME280;10356;50.544;9.642;2023-06-22T02:48:10;98389.38;;;18.55;100.00
20394;BME280;10356;50.544;9.642;2023-06-22T02:50:36;98412.63;;;18.52;100.00
20394;BME280;10356;50.544;9.642;2023-06-22T02:53:04;98410.31;;;18.49;100.00
20394;BME280;10356;50.544;9.642;2023-06-22T02:55:31;98398.59;;;18.43;100.00
20394;BME280;10356;50.544;9.642;2023-06-22T02:57:57;98389.53;;;18.46;100.00
20394;BME280;10356;50.544;9.642;2023-06-22T03:00:25;98392.34;;;18.44;100.00
20394;BME280;10356;50.544;9.642;2023-06-22T03:02:56;98409.34;;;18.50;100.00
20394;BME280;10356;50.544;9.642;2023-06-22T03:05:23;98435.56;;;18.51;100.00
20394;BME280;10356;50.544;9.642;2023-06-22T03:07:49;98426.97;;;18.57;100.00
20394;BME280;10356;50.544;9.642;2023-06-22T03:10:17;98429.97;;;18.62;100.00
20394;BME280;10356;50.544;9.642;2023-06-22T03:12:44;98429.97;;;18.62;100.00
20394;BME280;10356;50.544;9.642;2023-06-22T03:15:11;98427.97;;;18.64;100.00
20394;BME280;10356;50.544;9.642;2023-06-22T03:17:39;98407.66;;;18.65;100.00
20394;BME280;10356;50.544;9.642;2023-06-22T03:20:07;98403.03;;;18.67;100.00
20394;BME280;10356;50.544;9.642;2023-06-22T03:22:36;98401.25;;;18.67;100.00
20394;BME280;10356;50.544;9.642;2023-06-22T03:25:02;98388.03;;;18.59;100.00
20394;BME280;10356;50.544;9.642;2023-06-22T03:27:30;98376.16;;;18.55;100.00
20394;BME280;10356;50.544;9.642;2023-06-22T03:29:57;98370.88;;;18.55;100.00
20394;BME280;10356;50.544;9.642;2023-06-22T03:32:23;98366.63;;;18.62;100.00
20394;BME280;10356;50.544;9.642;2023-06-22T03:34:53;98361.81;;;18.66;100.00
20394;BME280;10356;50.544;9.642;2023-06-22T03:37:19;98349.75;;;18.71;100.00
20394;BME280;10356;50.544;9.642;2023-06-22T03:39:46;98355.38;;;18.68;100.00
20394;BME280;10356;50.544;9.642;2023-06-22T03:42:12;98375.19;;;18.72;100.00
20394;BME280;10356;50.544;9.642;2023-06-22T03:44:40;98384.56;;;18.75;100.00
20394;BME280;10356;50.544;9.642;2023-06-22T03:47:06;98382.75;;;18.75;100.00
20394;BME280;10356;50.544;9.642;2023-06-22T03:49:34;98391.16;;;18.79;100.00
20394;BME280;10356;50.544;9.642;2023-06-22T03:52:00;98387.72;;;18.78;100.00
20394;BME280;10356;50.544;9.642;2023-06-22T03:54:28;98398.28;;;18.78;100.00
20394;BME280;10356;50.544;9.642;2023-06-22T03:56:55;98394.81;;;18.78;100.00
20394;BME280;10356;50.544;9.642;2023-06-22T03:59:22;98380.13;;;18.75;100.00
20394;BME280;10356;50.544;9.642;2023-06-22T04:01:50;98384.06;;;18.79;100.00
20394;BME280;10356;50.544;9.642;2023-06-22T04:04:17;98389.03;;;18.82;100.00
20394;BME280;10356;50.544;9.642;2023-06-22T04:06:43;98387.84;;;18.85;100.00
20394;BME280;10356;50.544;9.642;2023-06-22T04:09:10;98396.13;;;18.90;100.00
20394;BME280;10356;50.544;9.642;2023-06-22T04:11:36;98393.63;;;18.96;100.00
20394;BME280;10356;50.544;9.642;2023-06-22T04:14:03;98392.31;;;19.00;100.00
20394;BME280;10356;50.544;9.642;2023-06-22T04:16:29;98392.59;;;19.05;100.00
20394;BME280;10356;50.544;9.642;2023-06-22T04:18:57;98394.56;;;19.11;100.00
20394;BME280;10356;50.544;9.642;2023-06-22T04:21:23;98401.16;;;19.15;100.00
20394;BME280;10356;50.544;9.642;2023-06-22T04:23:50;98405.13;;;19.19;100.00
20394;BME280;10356;50.544;9.642;2023-06-22T04:26:16;98404.97;;;19.13;100.00
20394;BME280;10356;50.544;9.642;2023-06-22T04:28:46;98400.19;;;19.16;100.00
20394;BME280;10356;50.544;9.642;2023-06-22T04:31:17;98386.97;;;19.16;100.00
20394;BME280;10356;50.544;9.642;2023-06-22T04:33:44;98384.84;;;19.12;100.00
20394;BME280;10356;50.544;9.642;2023-06-22T04:36:12;98390.28;;;19.18;100.00
20394;BME280;10356;50.544;9.642;2023-06-22T04:38:40;98383.00;;;19.20;100.00
20394;BME280;10356;50.544;9.642;2023-06-22T04:41:07;98389.44;;;19.26;100.00
20394;BME280;10356;50.544;9.642;2023-06-22T04:43:39;98385.97;;;19.34;100.00
20394;BME280;10356;50.544;9.642;2023-06-22T04:46:05;98381.47;;;19.42;100.00
20394;BME280;10356;50.544;9.642;2023-06-22T04:48:32;98379.97;;;19.48;100.00
20394;BME280;10356;50.544;9.642;2023-06-22T04:50:58;98380.28;;;19.53;100.00
20394;BME280;10356;50.544;9.642;2023-06-22T04:53:29;98381.06;;;19.61;100.00
20394;BME280;10356;50.544;9.642;2023-06-22T04:55:56;98378.59;;;19.60;100.00
20394;BME280;10356;50.544;9.642;2023-06-22T04:58:22;98375.91;;;19.68;100.00
20394;BME280;10356;50.544;9.642;2023-06-22T05:00:53;98379.34;;;19.76;100.00
20394;BME280;10356;50.544;9.642;2023-06-22T05:03:22;98386.09;;;19.79;100.00
20394;BME280;10356;50.544;9.642;2023-06-22T05:05:51;98387.22;;;19.84;100.00
20394;BME280;10356;50.544;9.642;2023-06-22T05:08:17;98377.94;;;19.88;100.00
20394;BME280;10356;50.544;9.642;2023-06-22T05:10:45;98378.91;;;19.95;100.00
20394;BME280;10356;50.544;9.642;2023-06-22T05:13:12;98385.22;;;19.86;100.00
20394;BME280;10356;50.544;9.642;2023-06-22T05:15:38;98383.84;;;19.98;100.00
20394;BME280;10356;50.544;9.642;2023-06-22T05:18:05;98387.28;;;20.07;100.00
20394;BME280;10356;50.544;9.642;2023-06-22T05:20:31;98380.91;;;20.16;100.00
20394;BME280;10356;50.544;9.642;2023-06-22T05:22:59;98375.59;;;20.24;100.00
20394;BME280;10356;50.544;9.642;2023-06-22T05:25:26;98377.91;;;20.27;100.00
20394;BME280;10356;50.544;9.642;2023-06-22T05:27:56;98384.69;;;20.44;100.00
20394;BME280;10356;50.544;9.642;2023-06-22T05:30:23;98393.53;;;20.59;100.00
20394;BME280;10356;50.544;9.642;2023-06-22T05:32:49;98389.91;;;20.75;100.00
20394;BME280;10356;50.544;9.642;2023-06-22T05:35:17;98396.25;;;20.88;99.47
20394;BME280;10356;50.544;9.642;2023-06-22T05:37:44;98396.91;;;20.90;97.89
20394;BME280;10356;50.544;9.642;2023-06-22T05:40:12;98391.53;;;20.99;97.99
20394;BME280;10356;50.544;9.642;2023-06-22T05:42:38;98399.59;;;21.05;97.86
20394;BME280;10356;50.544;9.642;2023-06-22T05:45:07;98393.84;;;21.16;97.27
20394;BME280;10356;50.544;9.642;2023-06-22T05:47:33;98394.66;;;21.31;97.39
20394;BME280;10356;50.544;9.642;2023-06-22T05:50:00;98401.25;;;21.50;95.49
20394;BME280;10356;50.544;9.642;2023-06-22T05:52:26;98392.28;;;21.65;94.63
20394;BME280;10356;50.544;9.642;2023-06-22T05:54:53;98394.47;;;21.77;92.97
20394;BME280;10356;50.544;9.642;2023-06-22T05:57:19;98392.19;;;21.88;92.32
20394;BME280;10356;50.544;9.642;2023-06-22T05:59:47;98399.16;;;21.89;89.85
20394;BME280;10356;50.544;9.642;2023-06-22T06:02:14;98402.03;;;21.94;90.52
20394;BME280;10356;50.544;9.642;2023-06-22T06:04:41;98401.03;;;22.10;89.89
20394;BME280;10356;50.544;9.642;2023-06-22T06:07:07;98398.94;;;22.26;89.68
20394;BME280;10356;50.544;9.642;2023-06-22T06:09:34;98406.41;;;22.37;86.57
20394;BME280;10356;50.544;9.642;2023-06-22T06:12:00;98400.22;;;22.51;87.25
20394;BME280;10356;50.544;9.642;2023-06-22T06:14:28;98402.25;;;22.71;86.12
20394;BME280;10356;50.544;9.642;2023-06-22T06:16:54;98400.84;;;22.75;86.50
20394;BME280;10356;50.544;9.642;2023-06-22T06:19:22;98393.75;;;23.09;86.09
20394;BME280;10356;50.544;9.642;2023-06-22T06:21:49;98400.38;;;23.20;83.89
20394;BME280;10356;50.544;9.642;2023-06-22T06:24:15;98391.91;;;23.38;81.52
20394;BME280;10356;50.544;9.642;2023-06-22T06:26:42;98388.94;;;23.47;81.25
20394;BME280;10356;50.544;9.642;2023-06-22T06:29:11;98382.81;;;23.60;81.99
20394;BME280;10356;50.544;9.642;2023-06-22T06:31:38;98382.78;;;24.00;82.20
20394;BME280;10356;50.544;9.642;2023-06-22T06:34:04;98375.06;;;24.18;78.76
20394;BME280;10356;50.544;9.642;2023-06-22T06:36:32;98372.56;;;24.04;81.26
20394;BME280;10356;50.544;9.642;2023-06-22T06:38:58;98376.75;;;24.33;77.42
20394;BME280;10356;50.544;9.642;2023-06-22T06:41:25;98378.53;;;24.12;78.20
20394;BME280;10356;50.544;9.642;2023-06-22T06:43:51;98373.50;;;24.50;81.15
20394;BME280;10356;50.544;9.642;2023-06-22T06:46:19;98367.34;;;24.56;79.35
20394;BME280;10356;50.544;9.642;2023-06-22T06:48:47;98357.53;;;24.96;76.77
20394;BME280;10356;50.544;9.642;2023-06-22T06:51:13;98355.19;;;25.39;75.59
20394;BME280;10356;50.544;9.642;2023-06-22T06:53:41;98364.63;;;25.41;77.07
20394;BME280;10356;50.544;9.642;2023-06-22T06:56:07;98363.66;;;25.80;77.61
20394;BME280;10356;50.544;9.642;2023-06-22T06:58:35;98359.09;;;25.94;73.38
20394;BME280;10356;50.544;9.642;2023-06-22T07:01:02;98357.69;;;25.85;74.70
20394;BME280;10356;50.544;9.642;2023-06-22T07:03:28;98356.91;;;25.77;72.01
20394;BME280;10356;50.544;9.642;2023-06-22T07:05:55;98350.22;;;26.37;72.50
20394;BME280;10356;50.544;9.642;2023-06-22T07:08:21;98348.09;;;26.15;71.13
20394;BME280;10356;50.544;9.642;2023-06-22T07:10:49;98344.06;;;25.99;70.83
20394;BME280;10356;50.544;9.642;2023-06-22T07:13:16;98345.47;;;26.39;70.02
20394;BME280;10356;50.544;9.642;2023-06-22T07:15:42;98340.91;;;26.96;69.74
20394;BME280;10356;50.544;9.642;2023-06-22T07:18:09;98338.00;;;26.97;67.85
20394;BME280;10356;50.544;9.642;2023-06-22T07:20:36;98343.34;;;26.97;71.11
20394;BME280;10356;50.544;9.642;2023-06-22T07:23:02;98348.66;;;27.04;66.03
20394;BME280;10356;50.544;9.642;2023-06-22T07:25:29;98344.50;;;27.08;65.90
20394;BME280;10356;50.544;9.642;2023-06-22T07:28:01;98337.31;;;27.63;69.71
20394;BME280;10356;50.544;9.642;2023-06-22T07:30:28;98328.59;;;27.85;64.16
20394;BME280;10356;50.544;9.642;2023-06-22T07:32:55;98333.13;;;27.37;64.14
20394;BME280;10356;50.544;9.642;2023-06-22T07:35:21;98327.66;;;27.43;65.28
20394;BME280;10356;50.544;9.642;2023-06-22T07:37:48;98327.06;;;27.60;62.19
20394;BME280;10356;50.544;9.642;2023-06-22T07:40:14;98318.13;;;28.13;62.07
20394;BME280;10356;50.544;9.642;2023-06-22T07:42:41;98310.53;;;28.10;60.91
20394;BME280;10356;50.544;9.642;2023-06-22T07:45:09;98314.09;;;27.75;63.34
20394;BME280;10356;50.544;9.642;2023-06-22T07:47:36;98313.56;;;28.14;62.53
20394;BME280;10356;50.544;9.642;2023-06-22T07:50:03;98314.22;;;28.39;62.82
20394;BME280;10356;50.544;9.642;2023-06-22T07:52:30;98314.59;;;28.54;61.66
20394;BME280;10356;50.544;9.642;2023-06-22T07:54:57;98311.59;;;28.21;62.89
20394;BME280;10356;50.544;9.642;2023-06-22T07:57:24;98312.94;;;28.53;61.35
20394;BME280;10356;50.544;9.642;2023-06-22T07:59:57;98315.28;;;28.38;60.92
20394;BME280;10356;50.544;9.642;2023-06-22T08:02:25;98307.88;;;28.63;62.65
20394;BME280;10356;50.544;9.642;2023-06-22T08:04:51;98297.16;;;28.86;60.01
20394;BME280;10356;50.544;9.642;2023-06-22T08:07:18;98305.75;;;28.65;58.85
20394;BME280;10356;50.544;9.642;2023-06-22T08:09:46;98305.31;;;29.15;57.91
20394;BME280;10356;50.544;9.642;2023-06-22T08:12:13;98308.19;;;29.13;59.00
20394;BME280;10356;50.544;9.642;2023-06-22T08:14:42;98298.09;;;29.55;55.58
20394;BME280;10356;50.544;9.642;2023-06-22T08:17:09;98296.38;;;29.89;53.94
20394;BME280;10356;50.544;9.642;2023-06-22T08:19:38;98290.16;;;29.88;53.55
20394;BME280;10356;50.544;9.642;2023-06-22T08:22:05;98296.19;;;30.23;55.58
20394;BME280;10356;50.544;9.642;2023-06-22T08:24:31;98291.94;;;30.27;56.15
20394;BME280;10356;50.544;9.642;2023-06-22T08:26:58;98300.81;;;30.11;53.96
20394;BME280;10356;50.544;9.642;2023-06-22T08:29:25;98292.84;;;29.88;57.47
20394;BME280;10356;50.544;9.642;2023-06-22T08:31:51;98295.25;;;30.29;56.96
20394;BME280;10356;50.544;9.642;2023-06-22T08:34:18;98284.88;;;30.54;54.06
20394;BME280;10356;50.544;9.642;2023-06-22T08:36:49;98284.78;;;30.83;52.15
20394;BME280;10356;50.544;9.642;2023-06-22T08:39:16;98285.28;;;30.96;51.45
20394;BME280;10356;50.544;9.642;2023-06-22T08:41:43;98282.94;;;30.33;53.44
20394;BME280;10356;50.544;9.642;2023-06-22T08:44:10;98286.28;;;30.12;54.09
20394;BME280;10356;50.544;9.642;2023-06-22T08:46:36;98282.84;;;30.61;52.49
20394;BME280;10356;50.544;9.642;2023-06-22T08:49:04;98273.78;;;30.67;52.20
20394;BME280;10356;50.544;9.642;2023-06-22T08:51:31;98276.97;;;30.98;51.30
20394;BME280;10356;50.544;9.642;2023-06-22T08:53:59;98274.81;;;29.72;53.39
20394;BME280;10356;50.544;9.642;2023-06-22T08:56:25;98271.63;;;30.31;54.59
20394;BME280;10356;50.544;9.642;2023-06-22T08:58:52;98269.09;;;30.58;51.99
20394;BME280;10356;50.544;9.642;2023-06-22T09:01:18;98264.75;;;31.12;48.63
20394;BME280;10356;50.544;9.642;2023-06-22T09:03:45;98270.66;;;31.30;48.74
20394;BME280;10356;50.544;9.642;2023-06-22T09:06:19;98261.91;;;31.40;47.79
20394;BME280;10356;50.544;9.642;2023-06-22T09:08:45;98247.72;;;31.71;49.67
20394;BME280;10356;50.544;9.642;2023-06-22T09:11:13;98255.59;;;31.99;47.82
20394;BME280;10356;50.544;9.642;2023-06-22T09:13:40;98245.16;;;31.86;48.01
20394;BME280;10356;50.544;9.642;2023-06-22T09:16:07;98247.59;;;32.09;46.39
20394;BME280;10356;50.544;9.642;2023-06-22T09:18:33;98241.91;;;32.43;48.02
20394;BME280;10356;50.544;9.642;2023-06-22T09:21:01;98245.03;;;32.61;48.40
20394;BME280;10356;50.544;9.642;2023-06-22T09:23:28;98249.19;;;32.79;45.31
20394;BME280;10356;50.544;9.642;2023-06-22T09:25:54;98241.19;;;32.20;42.77
20394;BME280;10356;50.544;9.642;2023-06-22T09:28:22;98233.56;;;31.86;45.19
20394;BME280;10356;50.544;9.642;2023-06-22T09:30:49;98236.91;;;32.24;47.70
20394;BME280;10356;50.544;9.642;2023-06-22T09:33:15;98234.34;;;32.40;44.75
20394;BME280;10356;50.544;9.642;2023-06-22T09:35:45;98230.28;;;32.79;44.91
20394;BME280;10356;50.544;9.642;2023-06-22T09:38:11;98229.91;;;33.02;43.90
20394;BME280;10356;50.544;9.642;2023-06-22T09:40:37;98241.41;;;33.39;43.21
20394;BME280;10356;50.544;9.642;2023-06-22T09:43:05;98235.19;;;32.87;42.84
20394;BME280;10356;50.544;9.642;2023-06-22T09:45:33;98236.38;;;32.54;43.50
20394;BME280;10356;50.544;9.642;2023-06-22T09:47:59;98231.03;;;33.06;40.79
20394;BME280;10356;50.544;9.642;2023-06-22T09:50:26;98228.63;;;32.68;39.63
20394;BME280;10356;50.544;9.642;2023-06-22T09:52:52;98225.00;;;32.20;40.13
20394;BME280;10356;50.544;9.642;2023-06-22T09:55:20;98225.53;;;32.49;42.91
20394;BME280;10356;50.544;9.642;2023-06-22T09:57:46;98224.78;;;32.27;42.46
20394;BME280;10356;50.544;9.642;2023-06-22T10:00:14;98215.69;;;32.75;41.14
20394;BME280;10356;50.544;9.642;2023-06-22T10:02:43;98220.56;;;33.30;40.57
20394;BME280;10356;50.544;9.642;2023-06-22T10:05:10;98213.75;;;33.17;39.61
20394;BME280;10356;50.544;9.642;2023-06-22T10:07:36;98218.38;;;33.17;38.78
20394;BME280;10356;50.544;9.642;2023-06-22T10:10:06;98217.44;;;32.96;41.54
20394;BME280;10356;50.544;9.642;2023-06-22T10:12:32;98222.53;;;33.44;40.68
20394;BME280;10356;50.544;9.642;2023-06-22T10:14:59;98210.16;;;33.58;39.31
20394;BME280;10356;50.544;9.642;2023-06-22T10:17:25;98212.34;;;33.86;39.93
20394;BME280;10356;50.544;9.642;2023-06-22T10:19:53;98208.63;;;33.11;37.55
20394;BME280;10356;50.544;9.642;2023-06-22T10:22:19;98200.22;;;33.07;40.13
20394;BME280;10356;50.544;9.642;2023-06-22T10:24:46;98197.44;;;33.49;40.99
20394;BME280;10356;50.544;9.642;2023-06-22T10:27:12;98195.00;;;33.52;40.46
20394;BME280;10356;50.544;9.642;2023-06-22T10:29:39;98184.47;;;33.56;38.22
20394;BME280;10356;50.544;9.642;2023-06-22T10:32:07;98179.88;;;33.66;40.35
20394;BME280;10356;50.544;9.642;2023-06-22T10:34:33;98177.78;;;34.09;36.89
20394;BME280;10356;50.544;9.642;2023-06-22T10:37:01;98177.75;;;33.73;35.34
20394;BME280;10356;50.544;9.642;2023-06-22T10:39:28;98178.78;;;33.52;39.85
20394;BME280;10356;50.544;9.642;2023-06-22T10:41:54;98180.31;;;33.28;38.72
20394;BME280;10356;50.544;9.642;2023-06-22T10:44:21;98170.31;;;33.24;38.63
20394;BME280;10356;50.544;9.642;2023-06-22T10:46:48;98167.38;;;33.45;39.31
20394;BME280;10356;50.544;9.642;2023-06-22T10:49:14;98167.97;;;33.52;37.13
20394;BME280;10356;50.544;9.642;2023-06-22T10:51:41;98160.44;;;33.59;38.53
20394;BME280;10356;50.544;9.642;2023-06-22T10:54:08;98162.59;;;33.57;41.88
20394;BME280;10356;50.544;9.642;2023-06-22T10:56:35;98149.13;;;34.08;39.30
20394;BME280;10356;50.544;9.642;2023-06-22T10:59:01;98150.94;;;34.52;37.12
20394;BME280;10356;50.544;9.642;2023-06-22T11:01:28;98154.78;;;34.21;34.95
20394;BME280;10356;50.544;9.642;2023-06-22T11:03:56;98148.25;;;34.37;35.24
20394;BME280;10356;50.544;9.642;2023-06-22T11:06:22;98144.97;;;34.55;36.31
20394;BME280;10356;50.544;9.642;2023-06-22T11:08:49;98142.81;;;34.47;36.52
20394;BME280;10356;50.544;9.642;2023-06-22T11:11:17;98127.06;;;34.70;38.03
20394;BME280;10356;50.544;9.642;2023-06-22T11:13:43;98129.50;;;34.76;35.73
20394;BME280;10356;50.544;9.642;2023-06-22T11:16:10;98119.19;;;34.78;36.07
20394;BME280;10356;50.544;9.642;2023-06-22T11:18:37;98126.09;;;34.10;38.00
20394;BME280;10356;50.544;9.642;2023-06-22T11:21:03;98111.09;;;33.07;36.23
20394;BME280;10356;50.544;9.642;2023-06-22T11:23:30;98112.22;;;33.16;37.29
20394;BME280;10356;50.544;9.642;2023-06-22T11:25:56;98104.38;;;33.20;38.24
20394;BME280;10356;50.544;9.642;2023-06-22T11:28:24;98101.50;;;33.61;38.18
20394;BME280;10356;50.544;9.642;2023-06-22T11:30:51;98096.06;;;33.86;37.34
20394;BME280;10356;50.544;9.642;2023-06-22T11:33:18;98096.03;;;34.27;35.97
20394;BME280;10356;50.544;9.642;2023-06-22T11:35:45;98082.56;;;34.91;37.25
20394;BME280;10356;50.544;9.642;2023-06-22T11:38:11;98080.22;;;34.69;34.41
20394;BME280;10356;50.544;9.642;2023-06-22T11:40:37;98083.53;;;34.41;35.65
20394;BME280;10356;50.544;9.642;2023-06-22T11:43:04;98073.81;;;34.35;36.53
20394;BME280;10356;50.544;9.642;2023-06-22T11:45:32;98064.72;;;33.70;36.11
20394;BME280;10356;50.544;9.642;2023-06-22T11:47:58;98068.16;;;34.31;37.07
20394;BME280;10356;50.544;9.642;2023-06-22T11:50:25;98058.72;;;34.24;36.54
20394;BME280;10356;50.544;9.642;2023-06-22T11:52:51;98052.75;;;34.32;36.54
20394;BME280;10356;50.544;9.642;2023-06-22T11:55:18;98050.53;;;34.44;34.18
20394;BME280;10356;50.544;9.642;2023-06-22T11:57:54;98050.53;;;34.54;35.98
20394;BME280;10356;50.544;9.642;2023-06-22T12:00:20;98043.50;;;34.33;36.95
20394;BME280;10356;50.544;9.642;2023-06-22T12:02:51;98031.88;;;34.91;35.99
20394;BME280;10356;50.544;9.642;2023-06-22T12:05:18;98031.66;;;34.24;37.40
20394;BME280;10356;50.544;9.642;2023-06-22T12:07:45;98018.88;;;34.34;35.07
20394;BME280;10356;50.544;9.642;2023-06-22T12:10:12;98020.31;;;34.17;35.66
20394;BME280;10356;50.544;9.642;2023-06-22T12:12:38;98019.16;;;34.38;37.17
20394;BME280;10356;50.544;9.642;2023-06-22T12:15:05;98008.00;;;34.54;37.01
20394;BME280;10356;50.544;9.642;2023-06-22T12:17:33;98024.00;;;35.05;37.11
20394;BME280;10356;50.544;9.642;2023-06-22T12:20:01;98007.88;;;34.75;37.02
20394;BME280;10356;50.544;9.642;2023-06-22T12:22:30;98002.56;;;34.54;38.84
20394;BME280;10356;50.544;9.642;2023-06-22T12:24:57;98005.00;;;34.61;38.38
20394;BME280;10356;50.544;9.642;2023-06-22T12:27:25;98001.91;;;34.24;38.42
20394;BME280;10356;50.544;9.642;2023-06-22T12:29:52;97994.16;;;33.67;41.19
20394;BME280;10356;50.544;9.642;2023-06-22T12:32:18;97985.78;;;33.68;40.25
20394;BME280;10356;50.544;9.642;2023-06-22T12:34:45;97982.91;;;34.29;38.83
20394;BME280;10356;50.544;9.642;2023-06-22T12:37:15;97981.09;;;34.09;38.15
20394;BME280;10356;50.544;9.642;2023-06-22T12:39:41;97993.78;;;34.24;39.03
20394;BME280;10356;50.544;9.642;2023-06-22T12:42:08;97988.56;;;34.32;37.73
20394;BME280;10356;50.544;9.642;2023-06-22T12:44:37;97980.13;;;34.54;37.82
20394;BME280;10356;50.544;9.642;2023-06-22T12:47:04;97971.06;;;34.79;38.08
20394;BME280;10356;50.544;9.642;2023-06-22T12:49:31;97975.22;;;35.05;40.09
20394;BME280;10356;50.544;9.642;2023-06-22T12:51:57;97970.66;;;34.95;38.21
20394;BME280;10356;50.544;9.642;2023-06-22T12:54:25;97962.56;;;34.90;37.37
20394;BME280;10356;50.544;9.642;2023-06-22T12:56:51;97958.47;;;34.54;40.36